createdAt,value
2023-05-24T00:02:27.226Z,97785.59
2023-05-24T00:04:56.110Z,97787.34
2023-05-24T00:07:26.038Z,97802.09
2023-05-24T00:09:54.827Z,97764.34
2023-05-24T00:12:24.038Z,97775.75
2023-05-24T00:14:52.539Z,97770.63
2023-05-24T00:17:21.818Z,97773.28
2023-05-24T00:19:53.558Z,97754.75
2023-05-24T00:22:22.908Z,97777.50
2023-05-24T00:24:52.957Z,97777.81
2023-05-24T00:27:22.514Z,97772.72
2023-05-24T00:29:51.611Z,97773.84
2023-05-24T00:32:20.571Z,97781.13
2023-05-24T00:34:49.937Z,97765.03
2023-05-24T00:37:20.152Z,97732.84
2023-05-24T00:39:49.272Z,97774.66
2023-05-24T00:42:19.326Z,97769.53
2023-05-24T00:44:48.442Z,97765.94
2023-05-24T00:47:17.521Z,97756.59
2023-05-24T00:49:46.634Z,97766.59
2023-05-24T00:52:15.753Z,97756.75
2023-05-24T00:54:46.552Z,97771.56
2023-05-24T00:57:15.636Z,97773.59
2023-05-24T00:59:47.496Z,97764.28
2023-05-24T01:02:17.762Z,97763.97
2023-05-24T01:04:49.146Z,97765.63
2023-05-24T01:07:27.386Z,97742.81
2023-05-24T01:10:06.531Z,97764.63
2023-05-24T01:12:48.667Z,97756.41
2023-05-24T01:15:27.038Z,97750.97
2023-05-24T01:18:05.735Z,97750.72
2023-05-24T01:20:38.619Z,97762.91
2023-05-24T01:23:34.640Z,97745.47
2023-05-24T01:26:17.877Z,97749.44
2023-05-24T01:28:50.565Z,97746.66
2023-05-24T01:31:20.430Z,97745.88
2023-05-24T01:33:49.130Z,97763.31
2023-05-24T01:36:18.160Z,97745.97
2023-05-24T01:38:48.032Z,97719.97
2023-05-24T01:41:25.654Z,97741.13
2023-05-24T01:44:04.505Z,97740.81
2023-05-24T01:46:38.158Z,97726.91
2023-05-24T01:49:21.058Z,97721.94
2023-05-24T01:51:55.768Z,97748.50
2023-05-24T01:54:27.642Z,97738.31
2023-05-24T01:56:58.670Z,97746.91
2023-05-24T01:59:31.865Z,97758.00
2023-05-24T02:02:01.292Z,97736.19
2023-05-24T02:04:30.462Z,97746.44
2023-05-24T02:06:59.453Z,97740.47
2023-05-24T02:09:28.059Z,97757.88
2023-05-24T02:11:56.506Z,97750.84
2023-05-24T02:14:26.749Z,97748.31
2023-05-24T02:16:59.400Z,97745.16
2023-05-24T02:19:28.073Z,97745.34
2023-05-24T02:21:57.918Z,97747.63
2023-05-24T02:24:27.128Z,97750.13
2023-05-24T02:26:56.783Z,97755.72
2023-05-24T02:29:27.655Z,97759.88
2023-05-24T02:31:58.349Z,97747.09
2023-05-24T02:34:26.870Z,97777.88
2023-05-24T02:36:56.759Z,97764.22
2023-05-24T02:39:25.709Z,97751.84
2023-05-24T02:41:55.125Z,97743.59
2023-05-24T02:44:24.141Z,97756.91
2023-05-24T02:46:55.923Z,97762.72
2023-05-24T02:49:26.783Z,97737.22
2023-05-24T02:51:56.170Z,97750.78
2023-05-24T02:54:26.210Z,97759.09
2023-05-24T02:56:57.254Z,97756.25
2023-05-24T02:59:26.123Z,97756.81
2023-05-24T03:01:56.614Z,97752.28
2023-05-24T03:04:28.350Z,97754.78
2023-05-24T03:06:57.521Z,97752.91
2023-05-24T03:09:26.700Z,97755.44
2023-05-24T03:11:57.604Z,97766.25
2023-05-24T03:14:26.717Z,97761.38
2023-05-24T03:16:55.817Z,97762.81
2023-05-24T03:19:27.072Z,97771.81
2023-05-24T03:21:56.579Z,97772.81
2023-05-24T03:24:26.748Z,97767.16
2023-05-24T03:26:55.309Z,97749.91
2023-05-24T03:29:23.867Z,97765.78
2023-05-24T03:31:52.879Z,97775.16
2023-05-24T03:34:22.758Z,97779.28
2023-05-24T03:36:53.740Z,97780.59
2023-05-24T03:39:22.977Z,97772.53
2023-05-24T03:41:52.630Z,97779.66
2023-05-24T03:44:22.514Z,97755.38
2023-05-24T03:47:04.120Z,97769.03
2023-05-24T03:49:34.055Z,97771.22
2023-05-24T03:52:05.227Z,97775.44
2023-05-24T03:54:33.960Z,97771.03
2023-05-24T03:57:03.161Z,97778.53
2023-05-24T03:59:32.776Z,97769.59
2023-05-24T04:02:01.198Z,97790.78
2023-05-24T04:04:30.571Z,97783.13
2023-05-24T04:07:02.484Z,97775.47
2023-05-24T04:09:34.433Z,97774.44
2023-05-24T04:12:05.024Z,97780.81
2023-05-24T04:14:36.016Z,97791.69
2023-05-24T04:17:07.000Z,97792.06
2023-05-24T04:19:36.496Z,97778.38
2023-05-24T04:22:07.267Z,97774.81
2023-05-24T04:24:37.506Z,97784.47
2023-05-24T04:27:06.655Z,97782.34
2023-05-24T04:29:38.767Z,97781.75
2023-05-24T04:32:08.466Z,97786.47
2023-05-24T04:34:37.157Z,97773.72
2023-05-24T04:37:05.713Z,97779.75
2023-05-24T04:39:37.371Z,97789.59
2023-05-24T04:42:06.924Z,97770.13
2023-05-24T04:44:36.525Z,97773.69
2023-05-24T04:47:05.770Z,97786.56
2023-05-24T04:49:34.064Z,97791.78
2023-05-24T04:52:02.892Z,97779.06
2023-05-24T04:54:32.417Z,97797.25
2023-05-24T04:57:02.492Z,97787.16
2023-05-24T04:59:31.399Z,97790.09
2023-05-24T05:01:59.791Z,97812.94
2023-05-24T05:04:28.278Z,97794.88
2023-05-24T05:06:57.029Z,97801.06
2023-05-24T05:09:26.662Z,97787.91
2023-05-24T05:11:56.752Z,97821.31
2023-05-24T05:14:27.995Z,97814.38
2023-05-24T05:16:56.918Z,97816.75
2023-05-24T05:19:26.612Z,97815.41
2023-05-24T05:21:58.391Z,97829.22
2023-05-24T05:24:29.861Z,97815.28
2023-05-24T05:27:01.483Z,97820.06
2023-05-24T05:29:34.593Z,97842.13
2023-05-24T05:32:15.498Z,97829.78
2023-05-24T05:34:46.422Z,97822.19
2023-05-24T05:37:17.946Z,97843.19
2023-05-24T05:39:47.049Z,97822.44
2023-05-24T05:42:16.479Z,97838.50
2023-05-24T05:44:47.664Z,97824.75
2023-05-24T05:47:16.751Z,97856.78
2023-05-24T05:49:45.265Z,97838.00
2023-05-24T05:52:13.664Z,97848.28
2023-05-24T05:54:42.999Z,97846.06
2023-05-24T05:57:29.928Z,97861.25
2023-05-24T06:00:00.452Z,97868.22
2023-05-24T06:02:29.021Z,97867.19
2023-05-24T06:04:58.333Z,97875.03
2023-05-24T06:07:27.923Z,97861.84
2023-05-24T06:09:56.338Z,97856.75
2023-05-24T06:12:24.934Z,97860.66
2023-05-24T06:14:55.086Z,97828.41
2023-05-24T06:17:26.059Z,97844.56
2023-05-24T06:19:56.439Z,97850.28
2023-05-24T06:22:25.125Z,97872.75
2023-05-24T06:24:54.312Z,97843.03
2023-05-24T06:27:23.312Z,97885.03
2023-05-24T06:29:57.791Z,97893.09
2023-05-24T06:32:28.164Z,97893.75
2023-05-24T06:34:56.884Z,97927.41
2023-05-24T06:37:26.542Z,97913.41
2023-05-24T06:39:55.338Z,97925.94
2023-05-24T06:42:23.724Z,97963.88
2023-05-24T06:44:52.475Z,97959.22
2023-05-24T06:49:48.116Z,97958.41
2023-05-24T06:52:19.677Z,97953.13
2023-05-24T06:54:51.237Z,97967.91
2023-05-24T06:57:28.115Z,97993.78
2023-05-24T07:00:00.431Z,98009.78
2023-05-24T07:02:33.089Z,98036.47
2023-05-24T07:05:05.476Z,98027.81
2023-05-24T07:07:36.729Z,98028.97
2023-05-24T07:10:11.200Z,97986.69
2023-05-24T07:12:47.598Z,97980.41
2023-05-24T07:15:21.832Z,97982.56
2023-05-24T07:17:51.772Z,97976.31
2023-05-24T07:20:22.831Z,97967.66
2023-05-24T07:22:54.430Z,97972.59
2023-05-24T07:25:25.591Z,97960.97
2023-05-24T07:27:55.366Z,97960.34
2023-05-24T07:32:59.726Z,97947.47
2023-05-24T07:35:31.293Z,97918.75
2023-05-24T07:38:01.377Z,97931.38
2023-05-24T07:40:30.217Z,97933.44
2023-05-24T07:42:59.979Z,97938.25
2023-05-24T07:45:29.272Z,97918.31
2023-05-24T07:48:02.313Z,97885.69
2023-05-24T07:50:32.671Z,97931.97
2023-05-24T07:53:02.366Z,97913.38
2023-05-24T07:55:31.647Z,97906.75
2023-05-24T07:58:03.517Z,97913.63
2023-05-24T08:00:36.532Z,97931.38
2023-05-24T08:03:18.358Z,97948.81
2023-05-24T08:05:49.941Z,97927.66
2023-05-24T08:08:27.997Z,97932.47
2023-05-24T08:11:00.491Z,97928.13
2023-05-24T08:13:32.760Z,97935.03
2023-05-24T08:16:03.087Z,97929.56
2023-05-24T08:18:37.201Z,97928.94
2023-05-24T08:21:15.812Z,97946.41
2023-05-24T08:23:47.123Z,97926.84
2023-05-24T08:26:20.235Z,97942.59
2023-05-24T08:28:53.186Z,97954.16
2023-05-24T08:31:29.457Z,97949.34
2023-05-24T08:34:02.393Z,97952.56
2023-05-24T08:36:36.307Z,97955.09
2023-05-24T08:39:08.816Z,97963.22
2023-05-24T08:41:37.726Z,97959.75
2023-05-24T08:44:07.865Z,97955.38
2023-05-24T08:46:38.176Z,97970.06
2023-05-24T08:49:07.650Z,97959.41
2023-05-24T08:51:39.189Z,97975.50
2023-05-24T08:54:12.282Z,97977.03
2023-05-24T08:56:41.864Z,97962.34
2023-05-24T08:59:10.444Z,97979.16
2023-05-24T09:01:41.199Z,97994.53
2023-05-24T09:04:10.597Z,97987.69
2023-05-24T09:06:40.349Z,97972.16
2023-05-24T09:09:11.746Z,97966.78
2023-05-24T09:11:43.005Z,97986.31
2023-05-24T09:14:12.153Z,97967.78
2023-05-24T09:16:40.649Z,97983.81
2023-05-24T09:19:08.881Z,97972.50
2023-05-24T09:21:37.726Z,97993.09
2023-05-24T09:24:12.448Z,97965.19
2023-05-24T09:26:41.502Z,97978.59
2023-05-24T09:29:10.806Z,97965.53
2023-05-24T09:31:40.804Z,97973.97
2023-05-24T09:34:17.054Z,97982.72
2023-05-24T09:36:48.676Z,97977.41
2023-05-24T09:39:22.332Z,97984.34
2023-05-24T09:41:57.409Z,97972.59
2023-05-24T09:44:27.271Z,97963.97
2023-05-24T09:46:56.677Z,97990.53
2023-05-24T09:49:24.859Z,97970.28
2023-05-24T09:51:54.439Z,98000.84
2023-05-24T09:54:25.926Z,97992.47
2023-05-24T09:56:54.753Z,98014.38
2023-05-24T09:59:23.300Z,98008.16
2023-05-24T10:01:54.487Z,97985.69
2023-05-24T10:04:34.203Z,97991.72
2023-05-24T10:07:04.107Z,97992.41
2023-05-24T10:09:35.057Z,98012.72
2023-05-24T10:12:06.095Z,98022.81
2023-05-24T10:14:36.326Z,98000.13
2023-05-24T10:17:06.824Z,98030.28
2023-05-24T10:19:35.629Z,98026.75
2023-05-24T10:22:08.206Z,98017.16
2023-05-24T10:24:42.309Z,98032.69
2023-05-24T10:27:19.541Z,98018.94
2023-05-24T10:29:59.256Z,98027.44
2023-05-24T10:32:32.077Z,98012.31
2023-05-24T10:35:01.011Z,98023.06
2023-05-24T10:37:30.225Z,98072.03
2023-05-24T10:40:01.376Z,98048.59
2023-05-24T10:42:33.473Z,98082.25
2023-05-24T10:45:01.912Z,98091.38
2023-05-24T10:47:30.087Z,98067.56
2023-05-24T10:49:59.990Z,98096.13
2023-05-24T10:52:36.798Z,98095.69
2023-05-24T10:55:08.262Z,98088.13
2023-05-24T10:57:37.451Z,98082.03
2023-05-24T11:03:09.346Z,98141.13
2023-05-24T11:05:51.820Z,98067.59
2023-05-24T11:08:26.223Z,98036.09
2023-05-24T11:11:23.318Z,98055.53
2023-05-24T11:13:58.244Z,98062.38
2023-05-24T11:16:38.207Z,98062.56
2023-05-24T11:19:16.251Z,98064.16
2023-05-24T11:21:46.448Z,98026.25
2023-05-24T11:24:15.532Z,98058.94
2023-05-24T11:26:45.766Z,98067.19
2023-05-24T11:29:18.183Z,98053.22
2023-05-24T11:31:53.203Z,98102.84
2023-05-24T11:34:22.273Z,98090.94
2023-05-24T11:36:52.134Z,98075.19
2023-05-24T11:39:20.882Z,98112.19
2023-05-24T11:41:51.126Z,98119.69
2023-05-24T11:44:20.940Z,98094.28
2023-05-24T11:46:49.359Z,98071.19
2023-05-24T11:49:18.510Z,98088.00
2023-05-24T11:51:47.224Z,98081.41
2023-05-24T11:54:15.279Z,98073.50
2023-05-24T11:56:43.305Z,98093.19
2023-05-24T11:59:17.367Z,98085.75
2023-05-24T12:01:45.728Z,98041.25
2023-05-24T12:04:13.810Z,98059.19
2023-05-24T12:06:43.930Z,98033.34
2023-05-24T12:09:14.949Z,98058.47
2023-05-24T12:11:45.208Z,98074.19
2023-05-24T12:14:15.952Z,98072.63
2023-05-24T12:16:44.848Z,98046.69
2023-05-24T12:19:32.407Z,98061.09
2023-05-24T12:22:02.038Z,98069.97
2023-05-24T12:24:31.012Z,98078.38
2023-05-24T12:27:06.844Z,98030.28
2023-05-24T12:29:39.145Z,98070.09
2023-05-24T12:32:13.160Z,98043.47
2023-05-24T12:34:43.270Z,98046.22
2023-05-24T12:37:12.490Z,98044.31
2023-05-24T12:39:43.381Z,98018.97
2023-05-24T12:42:14.118Z,98026.84
2023-05-24T12:44:45.307Z,98012.44
2023-05-24T12:47:15.322Z,98017.44
2023-05-24T12:49:44.134Z,98021.78
2023-05-24T12:52:13.240Z,98005.31
2023-05-24T12:54:42.027Z,98013.75
2023-05-24T12:57:10.296Z,98024.19
2023-05-24T12:59:38.683Z,97999.50
2023-05-24T13:02:09.219Z,97973.38
2023-05-24T13:04:37.687Z,98009.81
2023-05-24T13:07:06.153Z,98017.72
2023-05-24T13:09:34.718Z,98034.94
2023-05-24T13:12:02.997Z,98042.59
2023-05-24T13:14:31.213Z,98031.44
2023-05-24T13:17:00.004Z,98056.56
2023-05-24T13:19:29.631Z,98011.53
2023-05-24T13:21:57.645Z,98003.78
2023-05-24T13:24:26.398Z,97978.88
2023-05-24T13:26:55.086Z,97993.56
2023-05-24T13:31:55.382Z,97967.72
2023-05-24T13:34:24.803Z,97985.00
2023-05-24T13:36:56.116Z,97990.31
2023-05-24T13:39:24.828Z,97958.00
2023-05-24T13:41:53.186Z,97935.22
2023-05-24T13:44:21.785Z,97952.53
2023-05-24T13:46:50.455Z,97979.84
2023-05-24T13:49:18.766Z,97993.06
2023-05-24T13:51:47.604Z,97965.75
2023-05-24T13:54:17.645Z,97963.03
2023-05-24T13:56:46.643Z,97959.06
2023-05-24T13:59:14.602Z,97940.97
2023-05-24T14:01:43.108Z,97942.91
2023-05-24T14:04:12.063Z,97944.53
2023-05-24T14:06:40.896Z,97946.91
2023-05-24T14:09:10.225Z,97929.94
2023-05-24T14:11:39.780Z,97924.59
2023-05-24T14:14:57.926Z,97924.75
2023-05-24T14:16:57.040Z,97923.56
2023-05-24T14:19:25.844Z,97915.19
2023-05-24T14:21:54.418Z,97932.47
2023-05-24T14:24:24.267Z,97905.97
2023-05-24T14:26:53.881Z,97930.59
2023-05-24T14:29:22.171Z,97908.06
2023-05-24T14:31:51.235Z,97905.59
2023-05-24T14:34:19.444Z,97908.66
2023-05-24T14:36:48.539Z,97919.53
2023-05-24T14:39:17.213Z,97907.91
2023-05-24T14:41:47.936Z,97914.41
2023-05-24T14:44:19.555Z,97925.31
2023-05-24T14:46:48.518Z,97932.44
2023-05-24T14:49:17.300Z,97907.19
2023-05-24T14:51:50.644Z,97929.31
2023-05-24T14:54:19.404Z,97920.69
2023-05-24T14:56:47.671Z,97919.59
2023-05-24T14:59:17.672Z,97923.66
2023-05-24T15:01:45.989Z,97933.44
2023-05-24T15:04:14.335Z,97939.13
2023-05-24T15:06:42.989Z,97928.34
2023-05-24T15:09:11.902Z,97918.53
2023-05-24T15:11:40.585Z,97931.53
2023-05-24T15:14:08.763Z,97929.38
2023-05-24T15:16:38.731Z,97907.69
2023-05-24T15:19:07.581Z,97924.81
2023-05-24T15:21:37.009Z,97922.19
2023-05-24T15:24:05.772Z,97916.53
2023-05-24T15:26:34.952Z,97929.09
2023-05-24T15:29:04.983Z,97918.00
2023-05-24T15:31:33.581Z,97917.00
2023-05-24T15:34:05.325Z,97913.78
2023-05-24T15:36:33.711Z,97920.34
2023-05-24T15:39:02.078Z,97925.00
2023-05-24T15:41:30.685Z,97897.56
2023-05-24T15:44:00.899Z,97908.34
2023-05-24T15:46:29.284Z,97881.59
2023-05-24T15:48:58.169Z,97902.28
2023-05-24T15:54:00.046Z,97885.56
2023-05-24T15:56:28.502Z,97889.31
2023-05-24T15:58:57.838Z,97875.03
2023-05-24T16:01:26.678Z,97889.97
2023-05-24T16:03:54.845Z,97880.38
2023-05-24T16:06:24.069Z,97874.19
2023-05-24T16:08:54.327Z,97874.41
2023-05-24T16:11:23.675Z,97875.94
2023-05-24T16:13:54.036Z,97894.81
2023-05-24T16:16:24.083Z,97883.00
2023-05-24T16:18:52.952Z,97878.66
2023-05-24T16:21:21.521Z,97886.44
2023-05-24T16:23:50.175Z,97888.09
2023-05-24T16:26:19.911Z,97878.13
2023-05-24T16:28:48.187Z,97876.91
2023-05-24T16:31:17.636Z,97868.19
2023-05-24T16:33:45.879Z,97868.97
2023-05-24T16:36:13.938Z,97876.06
2023-05-24T16:38:43.015Z,97882.63
2023-05-24T16:41:11.650Z,97863.13
2023-05-24T16:43:41.621Z,97878.09
2023-05-24T16:46:11.182Z,97874.69
2023-05-24T16:48:39.579Z,97864.59
2023-05-24T16:51:08.188Z,97865.22
2023-05-24T16:53:37.093Z,97877.84
2023-05-24T16:56:05.635Z,97865.00
2023-05-24T16:58:34.051Z,97873.63
2023-05-24T17:01:03.910Z,97883.22
2023-05-24T17:03:34.462Z,97870.97
2023-05-24T17:06:05.242Z,97876.75
2023-05-24T17:08:35.719Z,97888.19
2023-05-24T17:11:03.760Z,97885.56
2023-05-24T17:13:34.602Z,97891.91
2023-05-24T17:16:05.254Z,97886.50
2023-05-24T17:18:33.282Z,97878.50
2023-05-24T17:21:02.979Z,97886.91
2023-05-24T17:23:34.005Z,97880.06
2023-05-24T17:26:02.921Z,97873.88
2023-05-24T17:28:31.439Z,97869.19
2023-05-24T17:31:01.542Z,97864.50
2023-05-24T17:33:32.044Z,97874.59
2023-05-24T17:36:03.365Z,97890.94
2023-05-24T17:38:33.173Z,97878.56
2023-05-24T17:41:01.691Z,97877.19
2023-05-24T17:43:33.083Z,97885.34
2023-05-24T17:46:06.558Z,97880.09
2023-05-24T17:48:41.272Z,97892.88
2023-05-24T17:51:10.477Z,97874.75
2023-05-24T17:53:41.516Z,97896.56
2023-05-24T17:56:09.941Z,97891.63
2023-05-24T17:58:38.264Z,97888.41
2023-05-24T18:01:07.831Z,97886.19
2023-05-24T18:03:39.131Z,97880.13
2023-05-24T18:06:08.525Z,97883.66
2023-05-24T18:08:38.657Z,97886.72
2023-05-24T18:11:09.769Z,97902.63
2023-05-24T18:13:39.046Z,97905.22
2023-05-24T18:16:07.664Z,97907.25
2023-05-24T18:18:38.695Z,97897.16
2023-05-24T18:21:07.176Z,97880.47
2023-05-24T18:23:37.701Z,97901.31
2023-05-24T18:26:08.937Z,97897.94
2023-05-24T18:28:38.245Z,97900.19
2023-05-24T18:31:08.798Z,97886.06
2023-05-24T18:33:39.673Z,97909.03
2023-05-24T18:36:08.311Z,97909.97
2023-05-24T18:38:37.084Z,97906.75
2023-05-24T18:41:10.020Z,97903.38
2023-05-24T18:43:38.974Z,97903.03
2023-05-24T18:46:07.588Z,97902.06
2023-05-24T18:48:36.453Z,97903.34
2023-05-24T18:51:06.622Z,97903.53
2023-05-24T18:53:36.564Z,97907.03
2023-05-24T18:56:05.905Z,97903.47
2023-05-24T18:58:35.358Z,97911.34
2023-05-24T19:01:06.975Z,97915.34
2023-05-24T19:03:35.260Z,97907.94
2023-05-24T19:06:03.789Z,97903.69
2023-05-24T19:08:34.371Z,97907.16
2023-05-24T19:11:02.989Z,97902.69
2023-05-24T19:13:31.695Z,97902.69
2023-05-24T19:16:02.105Z,97913.13
2023-05-24T19:18:30.169Z,97908.88
2023-05-24T19:20:58.234Z,97913.47
2023-05-24T19:23:27.020Z,97923.13
2023-05-24T19:25:56.541Z,97922.94
2023-05-24T19:28:25.021Z,97923.53
2023-05-24T19:30:53.913Z,97931.88
2023-05-24T19:33:22.579Z,97936.34
2023-05-24T19:35:51.735Z,97946.84
2023-05-24T19:38:21.100Z,97941.00
2023-05-24T19:40:50.125Z,97948.88
2023-05-24T19:43:20.553Z,97953.88
2023-05-24T19:45:52.208Z,97951.53
2023-05-24T19:48:20.882Z,97968.59
2023-05-24T19:50:49.563Z,97940.38
2023-05-24T19:53:18.383Z,97951.66
2023-05-24T19:55:46.775Z,97938.66
2023-05-24T19:58:15.420Z,97967.84
2023-05-24T20:00:45.406Z,97968.13
2023-05-24T20:03:13.969Z,97973.44
2023-05-24T20:05:42.408Z,97958.28
2023-05-24T20:08:11.203Z,97979.06
2023-05-24T20:10:39.452Z,97962.72
2023-05-24T20:13:07.729Z,97987.69
2023-05-24T20:15:36.535Z,97972.50
2023-05-24T20:18:06.544Z,97993.75
2023-05-24T20:20:35.630Z,97974.44
2023-05-24T20:23:04.818Z,97985.63
2023-05-24T20:25:33.189Z,97983.53
2023-05-24T20:28:01.377Z,97991.06
2023-05-24T20:30:30.173Z,97991.97
2023-05-24T20:32:58.485Z,97984.66
2023-05-24T20:35:28.338Z,97980.00
2023-05-24T20:37:56.831Z,97977.38
2023-05-24T20:40:26.018Z,97980.63
2023-05-24T20:42:55.411Z,98005.56
2023-05-24T20:45:24.001Z,97999.22
2023-05-24T20:47:52.592Z,97993.53
2023-05-24T20:50:20.865Z,97988.09
2023-05-24T20:52:50.656Z,97980.72
2023-05-24T20:55:18.928Z,98003.97
2023-05-24T20:57:47.946Z,98006.69
2023-05-24T21:00:17.002Z,98002.94
2023-05-24T21:02:45.485Z,98014.91
2023-05-24T21:05:14.203Z,98003.72
2023-05-24T21:07:42.705Z,98007.47
2023-05-24T21:10:18.326Z,98021.91
2023-05-24T21:12:48.366Z,97997.41
2023-05-24T21:15:16.634Z,98026.47
2023-05-24T21:17:44.899Z,98012.78
2023-05-24T21:20:14.080Z,98014.47
2023-05-24T21:22:43.384Z,98022.59
2023-05-24T21:25:13.142Z,98008.31
2023-05-24T21:27:41.696Z,98040.00
2023-05-24T21:30:10.706Z,98035.75
2023-05-24T21:32:39.036Z,98033.53
2023-05-24T21:35:08.759Z,98025.91
2023-05-24T21:37:37.129Z,98038.66
2023-05-24T21:40:06.276Z,98047.91
2023-05-24T21:42:36.472Z,98038.97
2023-05-24T21:45:05.176Z,98032.00
2023-05-24T21:47:35.497Z,98047.44
2023-05-24T21:50:04.595Z,98039.97
2023-05-24T21:52:32.827Z,98058.53
2023-05-24T21:55:01.149Z,98054.72
2023-05-24T21:57:29.847Z,98053.97
2023-05-24T22:00:00.065Z,98054.16
2023-05-24T22:02:29.060Z,98069.97
2023-05-24T22:04:57.594Z,98065.97
2023-05-24T22:07:25.919Z,98064.66
2023-05-24T22:09:55.196Z,98061.00
2023-05-24T22:12:23.566Z,98056.81
2023-05-24T22:14:53.168Z,98056.81
2023-05-24T22:17:23.127Z,98067.84
2023-05-24T22:19:53.656Z,98049.31
2023-05-24T22:22:24.556Z,98069.16
2023-05-24T22:24:53.066Z,98069.50
2023-05-24T22:27:22.325Z,98060.75
2023-05-24T22:29:51.020Z,98052.97
2023-05-24T22:32:20.480Z,98063.72
2023-05-24T22:34:50.152Z,98074.25
2023-05-24T22:37:18.633Z,98066.19
2023-05-24T22:39:47.222Z,98064.00
2023-05-24T22:42:15.466Z,98062.59
2023-05-24T22:44:43.649Z,98037.94
2023-05-24T22:47:14.402Z,98059.50
2023-05-24T22:49:43.089Z,98054.94
2023-05-24T22:52:13.177Z,98045.06
2023-05-24T22:54:41.385Z,98051.16
2023-05-24T22:57:10.361Z,98052.50
2023-05-24T22:59:38.979Z,98059.44
2023-05-24T23:02:07.389Z,98046.53
2023-05-24T23:04:35.312Z,98070.25
2023-05-24T23:07:03.756Z,98059.44
2023-05-24T23:09:36.836Z,98067.00
2023-05-24T23:12:08.609Z,98075.69
2023-05-24T23:14:39.066Z,98081.56
2023-05-24T23:17:10.839Z,98071.78
2023-05-24T23:19:42.732Z,98084.19
2023-05-24T23:22:13.406Z,98082.81
2023-05-24T23:24:44.170Z,98071.09
2023-05-24T23:27:13.030Z,98073.31
2023-05-24T23:29:40.840Z,98079.16
2023-05-24T23:32:10.085Z,98079.59
2023-05-24T23:34:39.016Z,98104.44
2023-05-24T23:37:07.641Z,98088.81
2023-05-24T23:39:43.076Z,98084.94
2023-05-24T23:42:12.600Z,98099.84
2023-05-24T23:44:40.596Z,98090.94
2023-05-24T23:47:09.435Z,98098.78
2023-05-24T23:49:37.789Z,98100.66
2023-05-24T23:52:06.753Z,98094.97
2023-05-24T23:54:35.526Z,98093.91
2023-05-24T23:57:04.061Z,98096.66
2023-05-24T23:59:33.615Z,98106.09
